| Record Date MM/DD/YYYY | Record Julian Date NNN day of the year | Air Temperature Max (Degrees Fahrenheit F) | Time Max Air Temperature HH:MM:SS This is the time of max air temperature standard time. | Air Temperature Min (Degrees Fahrenheit F) | Time Min Air Temperature HH:MM:SS This is the time of min air temperature standard time. | Air Temperature Observed (Degrees Fahrenheit F) This is an instantaneous reading for air temperature at 7:00:00 standard time. | Relative Humidity Max (Percent) | Time Max Relative Humidity HH:MM:SS This is the time of max relative humidity standard time. | Relative Humidity Min (Percent) | Time Min Relative Humidity HH:MM:SS This is the time of min relative humidity standard time. | Relative Humidity Observed (Percent) This is an instantaneous reading at 7:00:00 standard time. | Precipitation (Inches n.nn) total rain fall that occurred for the day. | Pan Evaporation (Inches n.nn) total evaporation that occured for the day. | Wind Run (Miles) Wind travel for the day. | Wind Speed (Miles Per Hour) Resultant / Average speed for the day. | Wind Direction (Degrees) Resultant Direction for the day | Solar Radiation (Langley's) that occurred for the day. | Soil Temperature Max at 2 inch depth (Degrees Fahrenheit F) that occurred during the day. | Time Max Soil temperature at 2 inches HH:MM:SS This is the time of max 2 inch soil temperature standard time. | Soil Temperature Min at 2 inch depth (Degrees Fahrenheit F) that occurred during the day. | Time Min Soil temperature at 2 inches HH:MM:SS This is the time of min 2 inch soil temperature standard time. | Soil Temperature Observed at 2 inch depth (Degrees Fahrenheit F) This is an instantaneous reading 2 inch soil temperature at 7:00:00 standard time. | Soil Temperature Max at 4 inch depth (Degrees Fahrenheit F) that occurred during the day. | Time Max Soil temperature at 4 inches HH:MM:SS This is the time of max 4 inch soil temperature standard time. | Soil Temperature Min at 4 inch depth (Degrees Fahrenheit F) that occurred during the day. | Time Min Soil temperature at 4 inches HH:MM:SS This is the time of min 4 inch soil temperature standard time. | Soil Temperature Observed at 4 inch depth (Degrees Fahrenheit F) This is an instantaneous reading 4 inch soil temperature at 7:00:00 standard time. | DD50 Degree Days 50 Fahrenheit. | Adjusted DD50 Degree Days 50 Fahrenheit adjusted for latitude. | DD60 Degree Days 60 Fahrenheit. |
|---|---|---|---|---|---|---|---|---|---|---|---|---|---|---|---|---|---|---|---|---|---|---|---|---|---|---|---|---|---|---|
| 04/08/2026 | 98 | 76 | 15:21:00 | 53 | 5:58:05 | 57 | 78 | 20:42:02 | 33 | 15:39:02 | 65 | 0 | 119 | 5.0 | 109 | 547 | 69 | 15:24:03 | 60 | 6:32:00 | 60 | 68 | 15:34:05 | 61 | 6:45:04 | 61 | 14.5 | 15.64 | 4.5 | |
| 04/09/2026 | 99 | 76 | 16:23:02 | 53 | 5:41:04 | 57 | 88 | 23:57:02 | 39 | 10:28:00 | 64 | 0 | 110 | 4.6 | 113 | 590 | 70 | 14:43:01 | 60 | 6:12:00 | 60 | 69 | 15:17:04 | 60 | 6:30:04 | 60 | 14.5 | 15.67 | 4.5 | |
| 04/10/2026 | 100 | 80 | 14:25:05 | 49 | 4:46:05 | 56 | 93 | 5:54:04 | 43 | 15:34:01 | 88 | 0 | 52 | 2.2 | 132 | 592 | 73 | 15:05:04 | 60 | 5:58:00 | 60 | 72 | 15:21:03 | 61 | 6:29:04 | 61 | 14.5 | 15.7 | 4.5 | |
| 04/11/2026 | 101 | 82 | 15:06:02 | 50 | 5:50:05 | 57 | 94 | 6:30:03 | 37 | 15:00:00 | 93 | 0 | 39 | 1.6 | 86 | 564 | 74 | 14:10:05 | 61 | 6:13:02 | 62 | 73 | 15:01:03 | 62 | 6:38:03 | 62 | 16 | 17.23 | 6 | |
| 04/12/2026 | 102 | 83 | 14:41:01 | 53 | 5:50:00 | 61 | 91 | 3:48:00 | 39 | 15:01:00 | 84 | 0 | 133 | 5.5 | 171 | 583 | 73 | 14:18:03 | 62 | 6:05:05 | 63 | 73 | 15:10:02 | 63 | 6:41:00 | 63 | 18 | 19.26 | 8 | |
| 04/13/2026 | 103 | 81 | 14:19:05 | 59 | 5:55:05 | 63 | 88 | 6:17:00 | 52 | 15:18:03 | 85 | 0 | 113 | 4.7 | 168 | 424 | 73 | 14:52:05 | 64 | 5:58:01 | 65 | 73 | 15:19:02 | 65 | 6:26:04 | 65 | 20 | 21.29 | 10 | |
| 04/14/2026 | 104 | 83 | 15:00:00 | 59 | 5:47:03 | 64 | 92 | 6:09:02 | 45 | 14:42:00 | 88 | 0 | 101 | 4.2 | 166 | 577 | 76 | 14:40:04 | 64 | 6:18:01 | 65 | 75 | 15:21:04 | 65 | 6:48:04 | 65 | 21 | 22.33 | 11 | |
| 04/15/2026 | 105 | 82 | 15:06:05 | 60 | 5:58:02 | 65 | 90 | 6:09:01 | 46 | 12:52:00 | 87 | 0 | 115 | 4.8 | 178 | 589 | 76 | 14:33:01 | 65 | 6:06:00 | 65 | 75 | 14:50:01 | 65 | 6:38:04 | 65 | 21 | 22.36 | 11 | |
| 04/16/2026 | 106 | 85 | 14:45:00 | 61 | 23:59:05 | 69 | 90 | 23:59:03 | 44 | 14:56:05 | 83 | 0 | 93 | 3.9 | 205 | 467 | 77 | 15:05:00 | 67 | 6:10:02 | 67 | 76 | 15:23:04 | 67 | 6:31:03 | 67 | 23 | 24.38 | 13 | |
| 04/17/2026 | 107 | 86 | 14:43:01 | 59 | 5:39:02 | 66 | 93 | 6:12:01 | 48 | 15:31:04 | 89 | 0 | 81 | 3.4 | 170 | 544 | 78 | 15:13:04 | 66 | 6:07:04 | 66 | 77 | 15:24:05 | 66 | 6:51:03 | 66 | 22.5 | 23.91 | 12.5 | |
| 04/18/2026 | 108 | 81 | 13:17:00 | 50 | 23:52:05 | 67 | 91 | 19:50:02 | 59 | 13:15:02 | 84 | 0.1 | 145 | 6.1 | 243 | 266 | 75 | 13:43:02 | 66 | 23:58:05 | 68 | 73 | 13:49:01 | 67 | 23:59:05 | 68 | 15.5 | 16.94 | 5.5 | |
| 04/19/2026 | 109 | 69 | 16:19:01 | 45 | 23:59:04 | 49 | 92 | 5:43:02 | 33 | 16:30:05 | 91 | 0 | 145 | 6.0 | 5 | 555 | 70 | 15:17:03 | 61 | 23:59:02 | 62 | 70 | 15:50:02 | 62 | 23:59:03 | 63 | 7 | 8.47 | 0 | |
| 04/20/2026 | 110 | 76 | 15:18:03 | 40 | 5:32:02 | 49 | 94 | 5:53:00 | 32 | 15:15:01 | 91 | 0 | 40 | 1.7 | 137 | 615 | 75 | 14:26:05 | 58 | 6:28:04 | 58 | 74 | 15:26:03 | 59 | 6:39:05 | 59 | 8 | 9.5 | 0 | |
| 04/21/2026 | 111 | 79 | 13:07:05 | 44 | 5:27:01 | 54 | 94 | 5:54:05 | 31 | 14:26:03 | 91 | 0 | 63 | 2.6 | 166 | 518 | 73 | 14:55:05 | 60 | 6:21:02 | 60 | 73 | 15:31:04 | 61 | 6:29:05 | 61 | 11.5 | 13.03 | 1.5 | |
| 04/22/2026 | 112 | 82 | 15:07:04 | 50 | 4:45:04 | 58 | 91 | 3:52:01 | 34 | 10:58:02 | 86 | 0 | 77 | 3.2 | 145 | 539 | 75 | 14:26:05 | 62 | 5:29:05 | 63 | 75 | 15:09:04 | 63 | 5:42:00 | 63 | 16 | 17.55 | 6 | |
| 04/23/2026 | 113 | 82 | 14:11:03 | 54 | 4:38:00 | 61 | 93 | 6:06:00 | 40 | 16:16:00 | 90 | 0 | 102 | 4.3 | 151 | 584 | 76 | 14:27:04 | 63 | 5:34:01 | 64 | 75 | 14:51:00 | 64 | 6:08:02 | 64 | 18 | 19.58 | 8 | |
| 04/24/2026 | 114 | 78 | 15:01:05 | 57 | 4:55:05 | 62 | 92 | 21:43:00 | 62 | 13:30:05 | 88 | 0.55 | 115 | 4.8 | 150 | 336 | 74 | 14:01:04 | 65 | 5:49:01 | 65 | 73 | 14:22:00 | 65 | 6:27:02 | 65 | 17.5 | 19.11 | 7.5 | |
| 04/25/2026 | 115 | 81 | 15:15:03 | 62 | 5:11:02 | 63 | 94 | 6:14:04 | 58 | 17:18:01 | 94 | 0.37 | 72 | 3.0 | 289 | 457 | 78 | 14:28:04 | 66 | 6:27:02 | 66 | 77 | 15:00:00 | 66 | 6:51:04 | 66 | 21.5 | 23.13 | 11.5 | |
| 04/26/2026 | 116 | 84 | 15:21:04 | 62 | 5:09:03 | 65 | 95 | 6:21:02 | 54 | 15:21:05 | 94 | 0 | 46 | 1.9 | 133 | 507 | 80 | 15:20:03 | 68 | 6:12:04 | 68 | 79 | 15:42:01 | 68 | 6:35:00 | 68 | 23 | 24.66 | 13 | |
| 04/27/2026 | 117 | 87 | 15:02:01 | 65 | 5:29:03 | 70 | 91 | 6:02:05 | 53 | 16:07:05 | 86 | 0 | 180 | 7.5 | 159 | 485 | 78 | 14:29:02 | 69 | 6:22:03 | 70 | 77 | 15:18:04 | 70 | 6:47:02 | 70 | 26 | 27.69 | 16 | |
| 04/28/2026 | 118 | 76 | 0:00:03 | 67 | 20:52:03 | 70 | 94 | 22:53:02 | 69 | 0:11:05 | 89 | 1.72 | 164 | 6.8 | 141 | 56 | 73 | 0:00:00 | 69 | 23:19:03 | 71 | 73 | 0:00:03 | 69 | 23:47:03 | 71 | 21.5 | 23.21 | 11.5 | |
| 04/29/2026 | 119 | 81 | 14:45:04 | 63 | 23:48:00 | 69 | 94 | 7:29:01 | 71 | 14:41:00 | 94 | 1.32 | 122 | 5.1 | 145 | 318 | 77 | 15:00:03 | 69 | 5:19:05 | 69 | 76 | 15:08:04 | 69 | 5:19:05 | 69 | 22 | 23.74 | 12 | |
| 04/30/2026 | 120 | 70 | 13:47:03 | 58 | 23:59:05 | 59 | 92 | 4:24:03 | 55 | 13:48:04 | 87 | 0.1 | 152 | 6.3 | 14 | 451 | 74 | 13:56:01 | 67 | 23:59:04 | 68 | 74 | 14:23:01 | 68 | 23:55:04 | 68 | 14 | 15.76 | 4 | |
| 05/01/2026 | 121 | 63 | 13:51:00 | 55 | 4:50:00 | 56 | 84 | 19:43:02 | 60 | 11:49:01 | 77 | 0 | 95 | 4.0 | 8 | 189 | 67 | 14:49:02 | 64 | 23:56:04 | 65 | 68 | 0:00:00 | 65 | 23:59:05 | 65 | 9 | 10.78 | 0 | |
| 05/02/2026 | 122 | 71 | 13:37:01 | 50 | 23:31:02 | 56 | 88 | 23:29:03 | 31 | 12:42:01 | 64 | 0 | 152 | 6.3 | 358 | 621 | 71 | 13:57:01 | 62 | 6:11:02 | 62 | 70 | 14:39:02 | 62 | 6:31:00 | 62 | 10.5 | 12.31 | 0.5 | |
| 05/03/2026 | 123 | 75 | 15:14:00 | 44 | 5:10:00 | 54 | 91 | 6:02:03 | 32 | 17:21:05 | 81 | 0 | 57 | 2.4 | 108 | 667 | 76 | 14:27:01 | 60 | 6:09:05 | 60 | 75 | 14:56:00 | 61 | 6:30:02 | 61 | 9.5 | 11.33 | 0 | |
| 05/04/2026 | 124 | 79 | 13:58:03 | 48 | 5:08:04 | 60 | 92 | 5:26:05 | 37 | 14:05:03 | 75 | 0 | 98 | 4.1 | 180 | 649 | 76 | 14:15:02 | 62 | 5:54:02 | 62 | 75 | 14:28:01 | 63 | 6:01:03 | 63 | 13.5 | 15.35 | 3.5 | |
| 05/05/2026 | 125 | 76 | 16:39:00 | 56 | 5:09:05 | 63 | 85 | 5:32:05 | 62 | 12:21:05 | 78 | 0 | 159 | 6.6 | 168 | 395 | 73 | 12:08:04 | 64 | 5:47:02 | 65 | 72 | 12:27:01 | 65 | 6:01:05 | 65 | 16 | 17.87 | 6 | |
| 05/06/2026 | 126 | 81 | 14:11:03 | 57 | 23:49:03 | 72 | 92 | 0:00:00 | 74 | 14:13:00 | 84 | 0.84 | 177 | 7.4 | 214 | 291 | 75 | 14:51:00 | 67 | 23:57:04 | 69 | 74 | 14:56:04 | 68 | 23:57:04 | 69 | 19 | 20.89 | 9 | |
| Average | 78.79 | 54.59 | 61.1 | 90.9 | 47.34 | 84.48 | 0.17 | 107.48 | 481.93 | 74.31 | 63.83 | 64.41 | 73.59 | 64.48 | 64.66 | 16.69 | 18.23 | 6.91 | ||||||||||||
| Total | 5 | 484 | 528.67 | 200.5 |